createdAt,value
2022-08-09T00:01:40.298Z,17.47
2022-08-09T00:04:35.376Z,17.49
2022-08-09T00:07:03.855Z,17.48
2022-08-09T00:09:38.249Z,17.51
2022-08-09T00:12:05.675Z,17.45
2022-08-09T00:14:37.843Z,17.36
2022-08-09T00:17:05.866Z,17.28
2022-08-09T00:19:34.103Z,17.25
2022-08-09T00:22:03.589Z,17.26
2022-08-09T00:24:32.136Z,17.29
2022-08-09T00:27:00.619Z,17.31
2022-08-09T00:29:39.801Z,17.32
2022-08-09T00:32:25.246Z,17.34
2022-08-09T00:34:54.148Z,17.36
2022-08-09T00:37:21.169Z,17.34
2022-08-09T00:40:12.161Z,17.28
2022-08-09T00:44:10.099Z,17.19
2022-08-09T00:45:22.009Z,17.12
2022-08-09T00:47:49.702Z,17.10
2022-08-09T00:50:16.545Z,17.10
2022-08-09T00:52:43.648Z,17.11
2022-08-09T00:55:32.970Z,17.13
2022-08-09T00:57:59.259Z,17.13
2022-08-09T01:00:27.695Z,17.07
2022-08-09T01:03:16.699Z,17.03
2022-08-09T01:06:13.746Z,16.91
2022-08-09T01:08:57.805Z,16.86
2022-08-09T01:11:57.880Z,16.88
2022-08-09T01:14:24.662Z,16.92
2022-08-09T01:17:00.898Z,16.93
2022-08-09T01:20:01.486Z,16.91
2022-08-09T01:22:54.879Z,16.90
2022-08-09T01:25:48.944Z,16.87
2022-08-09T01:28:21.431Z,16.83
2022-08-09T01:30:53.142Z,16.78
2022-08-09T01:33:25.847Z,16.73
2022-08-09T01:36:06.173Z,16.70
2022-08-09T01:38:40.799Z,16.66
2022-08-09T01:41:18.615Z,16.61
2022-08-09T01:43:59.455Z,16.58
2022-08-09T01:46:33.499Z,16.57
2022-08-09T01:49:12.787Z,16.51
2022-08-09T01:51:53.753Z,16.51
2022-08-09T01:54:33.004Z,16.51
2022-08-09T01:57:06.568Z,16.52
2022-08-09T01:59:50.883Z,16.55
2022-08-09T02:02:32.558Z,16.58
2022-08-09T02:05:15.267Z,16.59
2022-08-09T02:08:41.354Z,16.59
2022-08-09T02:10:51.073Z,16.59
2022-08-09T02:13:21.991Z,16.51
2022-08-09T02:15:56.392Z,16.45
2022-08-09T02:18:26.154Z,16.42
2022-08-09T02:21:00.254Z,16.38
2022-08-09T02:23:39.891Z,16.34
2022-08-09T02:26:25.323Z,16.28
2022-08-09T02:29:03.240Z,16.17
2022-08-09T02:31:36.317Z,16.12
2022-08-09T02:34:40.501Z,16.00
2022-08-09T02:37:14.873Z,16.02
2022-08-09T02:39:49.985Z,16.02
2022-08-09T02:42:33.478Z,16.00
2022-08-09T02:45:21.543Z,15.92
2022-08-09T02:47:59.383Z,15.90
2022-08-09T02:50:33.458Z,15.88
2022-08-09T02:53:04.939Z,15.85
2022-08-09T02:55:57.485Z,15.85
2022-08-09T02:58:32.339Z,15.82
2022-08-09T03:01:04.272Z,15.76
2022-08-09T03:04:13.252Z,15.75
2022-08-09T03:06:25.218Z,15.72
2022-08-09T03:08:55.608Z,15.72
2022-08-09T03:11:30.210Z,15.76
2022-08-09T03:14:12.501Z,15.75
2022-08-09T03:16:44.975Z,15.76
2022-08-09T03:19:14.054Z,15.77
2022-08-09T03:22:03.249Z,15.77
2022-08-09T03:24:42.696Z,15.77
2022-08-09T03:27:21.663Z,15.73
2022-08-09T03:29:57.717Z,15.73
2022-08-09T03:32:31.291Z,15.74
2022-08-09T03:35:00.459Z,15.76
2022-08-09T03:37:55.709Z,15.76
2022-08-09T03:40:17.022Z,15.75
2022-08-09T03:42:46.606Z,15.78
2022-08-09T03:45:14.008Z,15.78
2022-08-09T03:47:46.695Z,15.82
2022-08-09T03:50:18.722Z,15.86
2022-08-09T03:52:58.120Z,15.92
2022-08-09T03:55:27.286Z,15.91
2022-08-09T03:58:09.736Z,15.88
2022-08-09T04:00:45.150Z,15.86
2022-08-09T04:03:19.835Z,15.87
2022-08-09T04:05:59.960Z,15.90
2022-08-09T04:08:34.698Z,15.92
2022-08-09T04:11:02.392Z,15.91
2022-08-09T04:14:36.526Z,15.93
2022-08-09T04:16:20.589Z,15.93
2022-08-09T04:18:49.277Z,15.94
2022-08-09T04:21:19.271Z,15.95
2022-08-09T04:23:54.293Z,16.04
2022-08-09T04:26:37.833Z,16.12
2022-08-09T04:29:10.872Z,16.20
2022-08-09T04:31:47.434Z,16.28
2022-08-09T04:34:18.993Z,16.36
2022-08-09T04:36:57.425Z,16.40
2022-08-09T04:39:24.406Z,16.45
2022-08-09T04:41:51.564Z,16.51
2022-08-09T04:44:18.868Z,16.56
2022-08-09T04:46:58.286Z,16.62
2022-08-09T04:49:52.708Z,16.68
2022-08-09T04:52:32.275Z,16.75
2022-08-09T04:55:00.410Z,16.71
2022-08-09T04:57:54.431Z,16.79
2022-08-09T05:00:16.749Z,16.84
2022-08-09T05:02:44.359Z,16.82
2022-08-09T05:05:31.718Z,16.95
2022-08-09T05:08:05.948Z,17.04
2022-08-09T05:10:34.406Z,17.13
2022-08-09T05:13:03.883Z,17.13
2022-08-09T05:15:38.847Z,17.28
2022-08-09T05:18:42.926Z,17.36
2022-08-09T05:21:02.269Z,17.40
2022-08-09T05:23:53.935Z,17.44
2022-08-09T05:26:35.878Z,17.49
2022-08-09T05:29:04.847Z,17.51
2022-08-09T05:31:44.869Z,17.58
2022-08-09T05:34:18.426Z,17.65
2022-08-09T05:36:47.019Z,17.71
2022-08-09T05:39:28.291Z,17.77
2022-08-09T05:42:01.519Z,17.85
2022-08-09T05:44:32.658Z,17.93
2022-08-09T05:47:00.661Z,17.98
2022-08-09T05:50:24.020Z,18.03
2022-08-09T05:52:14.706Z,18.08
2022-08-09T05:54:42.424Z,18.11
2022-08-09T05:57:12.875Z,18.14
2022-08-09T05:59:45.108Z,18.17
2022-08-09T06:02:12.060Z,18.21
2022-08-09T06:04:45.915Z,18.25
2022-08-09T06:07:21.501Z,18.22
2022-08-09T06:09:55.234Z,18.35
2022-08-09T06:12:30.556Z,18.37
2022-08-09T06:15:01.271Z,18.39
2022-08-09T06:17:39.917Z,18.37
2022-08-09T06:20:08.652Z,18.38
2022-08-09T06:22:36.229Z,18.42
2022-08-09T06:25:04.073Z,18.48
2022-08-09T06:27:42.500Z,18.62
2022-08-09T06:30:13.892Z,18.80
2022-08-09T06:32:59.509Z,19.02
2022-08-09T06:35:56.402Z,19.21
2022-08-09T06:38:16.193Z,19.42
2022-08-09T06:40:43.876Z,19.63
2022-08-09T06:43:11.468Z,19.81
2022-08-09T06:46:07.785Z,19.91
2022-08-09T06:48:30.730Z,19.93
2022-08-09T06:50:59.871Z,19.97
2022-08-09T06:53:27.518Z,20.02
2022-08-09T06:56:00.504Z,20.13
2022-08-09T06:58:40.590Z,20.15
2022-08-09T07:01:14.588Z,20.11
2022-08-09T07:03:52.434Z,20.08
2022-08-09T07:06:20.913Z,20.01
2022-08-09T07:08:49.664Z,19.97
2022-08-09T07:11:23.514Z,19.93
2022-08-09T07:14:05.482Z,19.90
2022-08-09T07:16:41.952Z,19.85
2022-08-09T07:19:23.228Z,19.85
2022-08-09T07:21:57.713Z,19.84
2022-08-09T07:24:40.172Z,19.82
2022-08-09T07:27:26.970Z,19.71
2022-08-09T07:29:59.190Z,19.60
2022-08-09T07:32:32.893Z,19.58
2022-08-09T07:35:11.656Z,19.51
2022-08-09T07:37:45.586Z,19.45
2022-08-09T07:40:18.586Z,19.37
2022-08-09T07:42:59.114Z,19.36
2022-08-09T07:45:40.018Z,19.40
2022-08-09T07:48:25.459Z,19.45
2022-08-09T07:51:09.988Z,19.42
2022-08-09T07:54:05.957Z,19.55
2022-08-09T07:56:33.911Z,19.64
2022-08-09T07:59:01.237Z,19.73
2022-08-09T08:01:33.187Z,19.84
2022-08-09T08:04:02.625Z,19.96
2022-08-09T08:06:31.838Z,19.97
2022-08-09T08:09:04.931Z,19.97
2022-08-09T08:12:10.510Z,20.00
2022-08-09T08:14:24.003Z,20.06
2022-08-09T08:17:07.550Z,20.11
2022-08-09T08:19:35.954Z,20.21
2022-08-09T08:22:04.620Z,20.35
2022-08-09T08:24:40.279Z,20.48
2022-08-09T08:27:16.574Z,20.60
2022-08-09T08:29:48.511Z,20.73
2022-08-09T08:32:24.561Z,20.78
2022-08-09T08:34:58.929Z,20.85
2022-08-09T08:37:41.524Z,20.89
2022-08-09T08:40:16.880Z,20.86
2022-08-09T08:42:47.414Z,20.84
2022-08-09T08:45:16.721Z,20.81
2022-08-09T08:47:45.023Z,20.70
2022-08-09T08:50:18.302Z,20.71
2022-08-09T08:52:58.103Z,20.71
2022-08-09T08:55:27.733Z,20.66
2022-08-09T08:57:58.557Z,20.64
2022-08-09T09:00:34.486Z,20.61
2022-08-09T09:03:12.145Z,20.62
2022-08-09T09:05:59.838Z,20.66
2022-08-09T09:08:40.642Z,20.65
2022-08-09T09:11:13.673Z,20.64
2022-08-09T09:13:56.620Z,20.63
2022-08-09T09:16:34.167Z,20.61
2022-08-09T09:22:12.595Z,20.20
2022-08-09T09:25:00.819Z,19.94
2022-08-09T09:28:05.449Z,19.69
2022-08-09T09:30:44.578Z,19.54
2022-08-09T09:33:17.547Z,19.49
2022-08-09T09:36:01.659Z,19.50
2022-08-09T09:38:44.337Z,19.47
2022-08-09T09:41:23.661Z,19.53
2022-08-09T09:44:11.576Z,19.66
2022-08-09T09:46:46.138Z,19.78
2022-08-09T09:50:07.466Z,19.85
2022-08-09T09:52:33.281Z,19.98
2022-08-09T09:55:16.777Z,20.06
2022-08-09T09:58:19.939Z,20.14
2022-08-09T10:00:59.741Z,20.22
2022-08-09T10:03:57.488Z,20.29
2022-08-09T10:06:38.484Z,20.44
2022-08-09T10:09:23.116Z,20.60
2022-08-09T10:12:14.864Z,20.73
2022-08-09T10:14:51.298Z,20.82
2022-08-09T10:17:40.589Z,20.90
2022-08-09T10:20:27.577Z,20.87
2022-08-09T10:23:17.390Z,20.90
2022-08-09T10:26:06.064Z,20.92
2022-08-09T10:28:36.786Z,20.90
2022-08-09T10:34:11.072Z,21.09
2022-08-09T10:36:42.090Z,21.30
2022-08-09T10:39:14.157Z,21.64
2022-08-09T10:41:47.578Z,21.99
2022-08-09T10:44:23.033Z,22.27
2022-08-09T10:47:00.862Z,22.40
2022-08-09T10:49:51.456Z,22.41
2022-08-09T10:52:52.977Z,22.39
2022-08-09T10:55:35.534Z,22.42
2022-08-09T10:58:37.170Z,22.42
2022-08-09T11:03:03.079Z,22.71
2022-08-09T11:04:30.172Z,22.91
2022-08-09T11:06:57.812Z,23.23
2022-08-09T11:09:39.001Z,23.38
2022-08-09T11:12:17.420Z,23.63
2022-08-09T11:14:54.764Z,23.81
2022-08-09T11:17:22.783Z,23.81
2022-08-09T11:20:07.852Z,23.66
2022-08-09T11:22:42.848Z,23.55
2022-08-09T11:25:16.276Z,23.40
2022-08-09T11:28:08.093Z,23.27
2022-08-09T11:30:38.688Z,23.28
2022-08-09T11:33:18.088Z,23.23
2022-08-09T11:35:55.328Z,23.37
2022-08-09T11:38:28.883Z,23.49
2022-08-09T11:41:13.618Z,23.73
2022-08-09T11:43:48.978Z,24.38
2022-08-09T11:46:26.486Z,24.62
2022-08-09T11:49:00.997Z,24.63
2022-08-09T11:52:59.234Z,24.55
2022-08-09T11:55:51.546Z,24.39
2022-08-09T11:58:32.284Z,24.58
2022-08-09T12:01:15.686Z,24.88
2022-08-09T12:04:02.197Z,25.06
2022-08-09T12:06:34.965Z,25.57
2022-08-09T12:09:19.099Z,26.13
2022-08-09T12:12:02.753Z,26.70
2022-08-09T12:14:40.685Z,27.20
2022-08-09T12:17:33.781Z,26.87
2022-08-09T12:20:36.866Z,26.77
2022-08-09T12:23:04.733Z,27.16
2022-08-09T12:25:38.083Z,26.95
2022-08-09T12:28:59.164Z,26.49
2022-08-09T12:31:00.372Z,26.15
2022-08-09T12:33:50.893Z,26.17
2022-08-09T12:36:27.422Z,26.21
2022-08-09T12:38:58.908Z,26.29
2022-08-09T12:41:38.226Z,26.37
2022-08-09T12:44:09.885Z,26.36
2022-08-09T12:46:48.882Z,26.51
2022-08-09T12:49:17.031Z,26.63
2022-08-09T12:52:01.637Z,26.54
2022-08-09T12:54:30.985Z,26.46
2022-08-09T12:56:59.138Z,26.33
2022-08-09T12:59:57.730Z,26.40
2022-08-09T13:02:30.083Z,26.54
2022-08-09T13:05:02.358Z,26.39
2022-08-09T13:07:51.025Z,26.11
2022-08-09T13:10:17.506Z,25.70
2022-08-09T13:12:59.868Z,25.43
2022-08-09T13:15:35.992Z,25.22
2022-08-09T13:18:09.624Z,24.95
2022-08-09T13:21:03.826Z,24.65
2022-08-09T13:24:16.694Z,24.24
2022-08-09T13:26:36.976Z,24.04
2022-08-09T13:29:17.789Z,23.95
2022-08-09T13:32:17.963Z,23.89
2022-08-09T13:34:48.354Z,23.95
2022-08-09T13:37:51.017Z,23.95
2022-08-09T13:41:55.829Z,23.91
2022-08-09T13:42:52.118Z,23.78
2022-08-09T13:45:20.241Z,23.71
2022-08-09T13:47:51.230Z,23.47
2022-08-09T13:50:30.967Z,23.39
2022-08-09T13:52:58.440Z,23.40
2022-08-09T13:55:29.078Z,23.37
2022-08-09T13:57:59.326Z,23.33
2022-08-09T14:00:29.324Z,23.29
2022-08-09T14:03:16.604Z,23.27
2022-08-09T14:05:58.863Z,23.22
2022-08-09T14:08:30.529Z,23.27
2022-08-09T14:11:00.282Z,23.26
2022-08-09T14:14:22.578Z,23.27
2022-08-09T14:16:17.740Z,23.26
2022-08-09T14:18:50.258Z,23.23
2022-08-09T14:21:20.663Z,23.12
2022-08-09T14:23:55.455Z,23.03
2022-08-09T14:26:31.492Z,22.86
2022-08-09T14:29:02.990Z,22.73
2022-08-09T14:31:36.434Z,22.69
2022-08-09T14:34:31.742Z,22.61
2022-08-09T14:37:09.333Z,22.47
2022-08-09T14:39:47.733Z,22.35
2022-08-09T14:42:30.502Z,22.37
2022-08-09T14:46:39.536Z,22.37
2022-08-09T14:47:57.391Z,22.27
2022-08-09T14:50:34.499Z,22.21
2022-08-09T14:53:03.955Z,22.24
2022-08-09T14:55:38.624Z,22.16
2022-08-09T14:58:09.919Z,22.15
2022-08-09T15:00:39.853Z,22.11
2022-08-09T15:03:10.449Z,22.11
2022-08-09T15:05:39.624Z,22.11
2022-08-09T15:08:12.740Z,22.13
2022-08-09T15:10:43.697Z,22.21
2022-08-09T15:13:28.209Z,22.33
2022-08-09T15:16:15.166Z,22.42
2022-08-09T15:18:42.001Z,22.48
2022-08-09T15:21:55.402Z,22.46
2022-08-09T15:24:05.764Z,22.41
2022-08-09T15:26:37.660Z,22.34
2022-08-09T15:30:58.429Z,22.33
2022-08-09T15:31:59.958Z,22.33
2022-08-09T15:34:34.309Z,22.34
2022-08-09T15:37:04.109Z,22.36
2022-08-09T15:39:43.873Z,22.34
2022-08-09T15:42:19.114Z,22.29
2022-08-09T15:44:46.582Z,22.28
2022-08-09T15:47:14.240Z,22.24
2022-08-09T15:50:04.412Z,22.15
2022-08-09T15:52:37.211Z,22.05
2022-08-09T15:55:06.384Z,22.05
2022-08-09T15:57:34.267Z,22.06
2022-08-09T16:00:24.337Z,22.04
2022-08-09T16:02:56.262Z,21.95
2022-08-09T16:05:36.269Z,21.89
2022-08-09T16:08:29.815Z,21.88
2022-08-09T16:11:02.354Z,21.84
2022-08-09T16:14:02.902Z,21.77
2022-08-09T16:16:19.933Z,21.72
2022-08-09T16:18:47.743Z,21.68
2022-08-09T16:21:17.371Z,21.62
2022-08-09T16:23:56.005Z,21.51
2022-08-09T16:26:33.684Z,21.43
2022-08-09T16:29:11.179Z,21.37
2022-08-09T16:32:17.693Z,21.26
2022-08-09T16:34:54.458Z,21.15
2022-08-09T16:37:55.257Z,21.11
2022-08-09T16:40:10.923Z,21.05
2022-08-09T16:42:38.859Z,21.01
2022-08-09T16:45:13.813Z,20.94
2022-08-09T16:48:42.614Z,20.89
2022-08-09T16:50:33.819Z,20.83
2022-08-09T16:53:02.579Z,20.79
2022-08-09T16:56:01.356Z,20.72
2022-08-09T16:58:18.259Z,20.65
2022-08-09T17:00:46.703Z,20.61
2022-08-09T17:03:21.088Z,20.53
2022-08-09T17:06:07.197Z,20.41
2022-08-09T17:08:44.098Z,20.28
2022-08-09T17:11:24.549Z,20.15
2022-08-09T17:14:01.356Z,20.08
2022-08-09T17:16:29.387Z,19.90
2022-08-09T17:18:58.304Z,19.84
2022-08-09T17:21:25.254Z,19.71
2022-08-09T17:24:20.544Z,19.65
2022-08-09T17:26:47.749Z,19.56
2022-08-09T17:29:21.155Z,19.47
2022-08-09T17:31:49.220Z,19.40
2022-08-09T17:35:01.323Z,19.34
2022-08-09T17:37:04.254Z,19.20
2022-08-09T17:39:52.639Z,19.13
2022-08-09T17:42:42.030Z,19.03
2022-08-09T17:45:06.741Z,18.95
2022-08-09T17:47:49.344Z,18.86
2022-08-09T17:50:36.167Z,18.77
2022-08-09T17:53:19.294Z,18.67
2022-08-09T17:55:51.987Z,18.57
2022-08-09T17:58:27.126Z,18.44
2022-08-09T18:00:56.289Z,18.35
2022-08-09T18:03:24.469Z,18.24
2022-08-09T18:05:52.831Z,18.20
2022-08-09T18:08:21.779Z,18.15
2022-08-09T18:11:01.006Z,18.11
2022-08-09T18:13:39.208Z,18.03
2022-08-09T18:16:29.095Z,17.97
2022-08-09T18:19:03.888Z,17.91
2022-08-09T18:21:46.216Z,17.79
2022-08-09T18:24:17.507Z,17.72
2022-08-09T18:26:46.835Z,17.62
2022-08-09T18:30:42.911Z,17.50
2022-08-09T18:32:05.687Z,17.35
2022-08-09T18:34:35.289Z,17.23
2022-08-09T18:37:10.488Z,17.09
2022-08-09T18:39:55.680Z,16.96
2022-08-09T18:42:29.206Z,16.80
2022-08-09T18:44:57.121Z,16.62
2022-08-09T18:47:37.052Z,16.49
2022-08-09T18:50:06.186Z,16.39
2022-08-09T18:52:36.543Z,16.29
2022-08-09T18:55:05.226Z,16.18
2022-08-09T18:57:42.851Z,16.08
2022-08-09T19:00:19.121Z,15.89
2022-08-09T19:02:54.292Z,15.79
2022-08-09T19:05:28.578Z,15.69
2022-08-09T19:08:18.268Z,15.59
2022-08-09T19:10:47.928Z,15.50
2022-08-09T19:13:20.750Z,15.38
2022-08-09T19:15:55.780Z,15.24
2022-08-09T19:18:36.441Z,15.15
2022-08-09T19:21:08.949Z,15.08
2022-08-09T19:24:37.481Z,15.00
2022-08-09T19:26:31.288Z,14.91
2022-08-09T19:29:02.452Z,14.86
2022-08-09T19:31:45.414Z,14.76
2022-08-09T19:34:21.583Z,14.63
2022-08-09T19:36:50.401Z,14.51
2022-08-09T19:39:17.472Z,14.39
2022-08-09T19:41:48.772Z,14.23
2022-08-09T19:44:22.282Z,14.19
2022-08-09T19:46:53.649Z,14.03
2022-08-09T19:50:07.976Z,14.00
2022-08-09T19:52:10.144Z,13.93
2022-08-09T19:54:39.943Z,13.85
2022-08-09T19:57:08.408Z,13.78
2022-08-09T19:59:57.486Z,13.71
2022-08-09T20:04:12.547Z,13.63
2022-08-09T20:05:15.269Z,13.58
2022-08-09T20:08:00.284Z,13.51
2022-08-09T20:10:36.875Z,13.45
2022-08-09T20:13:06.150Z,13.38
2022-08-09T20:16:33.756Z,13.31
2022-08-09T20:18:22.443Z,13.24
2022-08-09T20:20:55.015Z,13.19
2022-08-09T20:23:23.906Z,13.14
2022-08-09T20:25:53.675Z,13.07
2022-08-09T20:28:28.206Z,13.02
2022-08-09T20:31:04.815Z,12.95
2022-08-09T20:33:40.936Z,12.86
2022-08-09T20:36:09.056Z,12.81
2022-08-09T20:39:17.144Z,12.74
2022-08-09T20:41:32.462Z,12.68
2022-08-09T20:44:05.027Z,12.60
2022-08-09T20:46:42.815Z,12.56
2022-08-09T20:49:13.080Z,12.52
2022-08-09T20:51:42.271Z,12.47
2022-08-09T20:54:17.076Z,12.39
2022-08-09T20:56:49.392Z,12.35
2022-08-09T20:59:17.787Z,12.31
2022-08-09T21:02:04.389Z,12.30
2022-08-09T21:05:54.029Z,12.26
2022-08-09T21:07:18.416Z,12.22
2022-08-09T21:09:56.808Z,12.22
2022-08-09T21:15:14.737Z,12.15
2022-08-09T21:18:11.550Z,12.17
2022-08-09T21:20:30.879Z,12.10
2022-08-09T21:22:59.644Z,12.07
2022-08-09T21:25:55.937Z,11.93
2022-08-09T21:28:34.074Z,11.87
2022-08-09T21:31:17.555Z,11.84
2022-08-09T21:33:50.962Z,11.81
2022-08-09T21:36:19.806Z,11.76
2022-08-09T21:38:51.100Z,11.77
2022-08-09T21:41:53.452Z,11.70
2022-08-09T21:44:11.053Z,11.68
2022-08-09T21:46:38.085Z,11.68
2022-08-09T21:49:04.904Z,11.64
2022-08-09T21:51:36.327Z,11.52
2022-08-09T21:54:12.103Z,11.52
2022-08-09T21:56:44.779Z,11.52
2022-08-09T21:59:25.376Z,11.50
2022-08-09T22:01:58.699Z,11.49
2022-08-09T22:04:55.135Z,11.43
2022-08-09T22:07:14.359Z,11.42
2022-08-09T22:10:01.005Z,11.38
2022-08-09T22:12:34.854Z,11.35
2022-08-09T22:15:02.517Z,11.33
2022-08-09T22:17:32.170Z,11.30
2022-08-09T22:20:00.668Z,11.26
2022-08-09T22:22:29.129Z,11.22
2022-08-09T22:26:06.548Z,11.20
2022-08-09T22:27:43.144Z,11.16
2022-08-09T22:30:11.219Z,11.14
2022-08-09T22:32:38.454Z,11.12
2022-08-09T22:36:01.924Z,11.09
2022-08-09T22:38:07.066Z,11.03
2022-08-09T22:40:35.740Z,11.00
2022-08-09T22:43:15.954Z,10.99
2022-08-09T22:48:11.229Z,10.93
2022-08-09T22:48:34.910Z,10.90
2022-08-09T22:51:10.309Z,10.90
2022-08-09T22:53:44.338Z,10.91
2022-08-09T22:56:30.676Z,10.90
2022-08-09T22:59:05.964Z,10.90
2022-08-09T23:01:49.158Z,10.85
2022-08-09T23:04:16.358Z,10.81
2022-08-09T23:07:03.196Z,10.78
2022-08-09T23:09:39.279Z,10.73
2022-08-09T23:12:06.552Z,10.71
2022-08-09T23:14:41.475Z,10.69
2022-08-09T23:17:11.028Z,10.61
2022-08-09T23:20:07.369Z,10.59
2022-08-09T23:22:25.380Z,10.54
2022-08-09T23:24:52.197Z,10.51
2022-08-09T23:27:19.042Z,10.45
2022-08-09T23:29:46.066Z,10.45
2022-08-09T23:32:13.026Z,10.39
2022-08-09T23:34:39.924Z,10.36
2022-08-09T23:37:07.943Z,10.36
2022-08-09T23:39:34.836Z,10.31
2022-08-09T23:42:01.752Z,10.30
2022-08-09T23:44:29.143Z,10.29
2022-08-09T23:46:57.399Z,10.28
2022-08-09T23:49:25.914Z,10.27
2022-08-09T23:51:54.292Z,10.25
2022-08-09T23:54:25.212Z,10.19
2022-08-09T23:56:58.106Z,10.15
2022-08-09T23:59:25.985Z,10.14
